sensor_id;sensor_type;location;lat;lon;timestamp;P1;durP1;ratioP1;P2;durP2;ratioP2
15183;SDS011;7693;49.266;7.104;2024-01-06T06:16:49;7.63;;;6.13;;
15183;SDS011;7693;49.266;7.104;2024-01-06T06:19:15;8.67;;;6.97;;
15183;SDS011;7693;49.266;7.104;2024-01-06T06:21:43;8.00;;;6.33;;
15183;SDS011;7693;49.266;7.104;2024-01-06T06:24:09;7.90;;;7.07;;
15183;SDS011;7693;49.266;7.104;2024-01-06T06:26:34;11.60;;;6.53;;
15183;SDS011;7693;49.266;7.104;2024-01-06T06:29:00;7.70;;;6.97;;
15183;SDS011;7693;49.266;7.104;2024-01-06T06:31:26;10.00;;;7.17;;
15183;SDS011;7693;49.266;7.104;2024-01-06T06:33:51;7.23;;;6.00;;
15183;SDS011;7693;49.266;7.104;2024-01-06T06:36:17;7.43;;;6.23;;
15183;SDS011;7693;49.266;7.104;2024-01-06T06:38:43;6.67;;;6.17;;
15183;SDS011;7693;49.266;7.104;2024-01-06T06:41:08;7.03;;;6.33;;
15183;SDS011;7693;49.266;7.104;2024-01-06T06:43:34;7.20;;;6.60;;
15183;SDS011;7693;49.266;7.104;2024-01-06T06:46:00;7.87;;;6.60;;
15183;SDS011;7693;49.266;7.104;2024-01-06T06:48:25;9.57;;;8.27;;
15183;SDS011;7693;49.266;7.104;2024-01-06T06:50:51;8.57;;;7.77;;
15183;SDS011;7693;49.266;7.104;2024-01-06T06:53:17;7.03;;;6.53;;
15183;SDS011;7693;49.266;7.104;2024-01-06T06:55:43;7.03;;;6.40;;
15183;SDS011;7693;49.266;7.104;2024-01-06T06:58:08;8.73;;;6.27;;
15183;SDS011;7693;49.266;7.104;2024-01-06T07:00:34;6.77;;;6.07;;
15183;SDS011;7693;49.266;7.104;2024-01-06T07:03:00;8.73;;;6.67;;
15183;SDS011;7693;49.266;7.104;2024-01-06T07:05:25;7.77;;;7.07;;
15183;SDS011;7693;49.266;7.104;2024-01-06T07:07:51;7.07;;;6.37;;
15183;SDS011;7693;49.266;7.104;2024-01-06T07:10:17;7.53;;;6.63;;
15183;SDS011;7693;49.266;7.104;2024-01-06T07:12:43;7.43;;;6.67;;
15183;SDS011;7693;49.266;7.104;2024-01-06T07:15:08;9.40;;;6.90;;
15183;SDS011;7693;49.266;7.104;2024-01-06T07:17:35;7.87;;;7.10;;
15183;SDS011;7693;49.266;7.104;2024-01-06T07:20:01;7.97;;;6.57;;
15183;SDS011;7693;49.266;7.104;2024-01-06T07:22:27;7.80;;;7.00;;
15183;SDS011;7693;49.266;7.104;2024-01-06T07:24:53;9.00;;;6.70;;
15183;SDS011;7693;49.266;7.104;2024-01-06T07:27:18;7.80;;;7.00;;
15183;SDS011;7693;49.266;7.104;2024-01-06T07:29:44;7.20;;;6.50;;
15183;SDS011;7693;49.266;7.104;2024-01-06T07:32:10;7.97;;;7.13;;
15183;SDS011;7693;49.266;7.104;2024-01-06T07:34:36;7.63;;;6.90;;
15183;SDS011;7693;49.266;7.104;2024-01-06T07:37:01;7.40;;;6.70;;
15183;SDS011;7693;49.266;7.104;2024-01-06T07:39:27;8.10;;;7.13;;
15183;SDS011;7693;49.266;7.104;2024-01-06T07:41:53;8.20;;;7.27;;
15183;SDS011;7693;49.266;7.104;2024-01-06T07:44:19;8.13;;;6.67;;
15183;SDS011;7693;49.266;7.104;2024-01-06T07:46:49;7.13;;;6.63;;
15183;SDS011;7693;49.266;7.104;2024-01-06T07:49:18;8.50;;;6.23;;
15183;SDS011;7693;49.266;7.104;2024-01-06T07:51:44;8.27;;;6.93;;
15183;SDS011;7693;49.266;7.104;2024-01-06T07:54:09;7.50;;;6.80;;
15183;SDS011;7693;49.266;7.104;2024-01-06T07:56:36;8.63;;;7.33;;
15183;SDS011;7693;49.266;7.104;2024-01-06T07:59:02;7.37;;;6.60;;
15183;SDS011;7693;49.266;7.104;2024-01-06T08:01:29;7.67;;;6.97;;
15183;SDS011;7693;49.266;7.104;2024-01-06T08:03:55;7.83;;;7.13;;
15183;SDS011;7693;49.266;7.104;2024-01-06T08:06:20;8.37;;;6.80;;
15183;SDS011;7693;49.266;7.104;2024-01-06T08:08:46;8.07;;;6.40;;
15183;SDS011;7693;49.266;7.104;2024-01-06T08:11:12;11.87;;;8.00;;
15183;SDS011;7693;49.266;7.104;2024-01-06T08:13:37;7.83;;;7.03;;
15183;SDS011;7693;49.266;7.104;2024-01-06T08:16:03;7.77;;;6.00;;
15183;SDS011;7693;49.266;7.104;2024-01-06T08:18:30;7.50;;;6.73;;
15183;SDS011;7693;49.266;7.104;2024-01-06T08:20:56;7.33;;;6.67;;
15183;SDS011;7693;49.266;7.104;2024-01-06T08:23:21;10.10;;;6.77;;
15183;SDS011;7693;49.266;7.104;2024-01-06T08:25:47;7.83;;;7.00;;
15183;SDS011;7693;49.266;7.104;2024-01-06T08:28:13;9.53;;;7.77;;
15183;SDS011;7693;49.266;7.104;2024-01-06T08:30:43;7.50;;;6.73;;
15183;SDS011;7693;49.266;7.104;2024-01-06T08:33:09;8.13;;;6.60;;
15183;SDS011;7693;49.266;7.104;2024-01-06T08:35:35;7.23;;;6.40;;
15183;SDS011;7693;49.266;7.104;2024-01-06T08:38:05;7.00;;;6.50;;
15183;SDS011;7693;49.266;7.104;2024-01-06T08:40:31;7.40;;;6.57;;
15183;SDS011;7693;49.266;7.104;2024-01-06T08:42:57;7.53;;;6.50;;
15183;SDS011;7693;49.266;7.104;2024-01-06T08:45:22;10.13;;;7.47;;
15183;SDS011;7693;49.266;7.104;2024-01-06T08:47:48;7.77;;;6.70;;
15183;SDS011;7693;49.266;7.104;2024-01-06T08:50:14;7.30;;;6.30;;
15183;SDS011;7693;49.266;7.104;2024-01-06T08:52:39;6.97;;;6.37;;
15183;SDS011;7693;49.266;7.104;2024-01-06T08:55:05;6.83;;;6.33;;
15183;SDS011;7693;49.266;7.104;2024-01-06T08:57:31;9.70;;;6.97;;
15183;SDS011;7693;49.266;7.104;2024-01-06T08:59:56;7.47;;;6.77;;
15183;SDS011;7693;49.266;7.104;2024-01-06T09:02:22;6.60;;;6.10;;
15183;SDS011;7693;49.266;7.104;2024-01-06T09:04:47;6.80;;;6.30;;
15183;SDS011;7693;49.266;7.104;2024-01-06T09:07:13;7.17;;;6.57;;
15183;SDS011;7693;49.266;7.104;2024-01-06T09:09:39;7.23;;;6.50;;
15183;SDS011;7693;49.266;7.104;2024-01-06T09:12:04;7.50;;;6.77;;
15183;SDS011;7693;49.266;7.104;2024-01-06T09:14:30;9.43;;;6.20;;
15183;SDS011;7693;49.266;7.104;2024-01-06T09:16:56;7.07;;;6.43;;
15183;SDS011;7693;49.266;7.104;2024-01-06T09:19:22;7.90;;;7.20;;
15183;SDS011;7693;49.266;7.104;2024-01-06T09:21:47;7.13;;;6.60;;
15183;SDS011;7693;49.266;7.104;2024-01-06T09:24:13;7.40;;;6.70;;
15183;SDS011;7693;49.266;7.104;2024-01-06T09:26:38;7.43;;;6.77;;
15183;SDS011;7693;49.266;7.104;2024-01-06T09:29:04;6.37;;;5.83;;
15183;SDS011;7693;49.266;7.104;2024-01-06T09:31:30;6.60;;;6.10;;
15183;SDS011;7693;49.266;7.104;2024-01-06T09:33:59;6.37;;;5.87;;
15183;SDS011;7693;49.266;7.104;2024-01-06T09:36:30;5.97;;;5.50;;
15183;SDS011;7693;49.266;7.104;2024-01-06T09:38:56;8.43;;;6.43;;
15183;SDS011;7693;49.266;7.104;2024-01-06T09:41:22;7.60;;;5.67;;
15183;SDS011;7693;49.266;7.104;2024-01-06T09:43:48;6.00;;;5.50;;
15183;SDS011;7693;49.266;7.104;2024-01-06T09:46:26;6.47;;;5.97;;
15183;SDS011;7693;49.266;7.104;2024-01-06T09:48:55;6.50;;;5.93;;
15183;SDS011;7693;49.266;7.104;2024-01-06T09:51:22;7.00;;;6.40;;
15183;SDS011;7693;49.266;7.104;2024-01-06T09:56:16;6.43;;;5.83;;
15183;SDS011;7693;49.266;7.104;2024-01-06T09:58:42;5.93;;;4.90;;
15183;SDS011;7693;49.266;7.104;2024-01-06T10:01:09;5.53;;;5.20;;
15183;SDS011;7693;49.266;7.104;2024-01-06T10:03:38;5.63;;;5.23;;
15183;SDS011;7693;49.266;7.104;2024-01-06T10:06:03;5.87;;;5.43;;
15183;SDS011;7693;49.266;7.104;2024-01-06T10:08:29;6.20;;;5.80;;
15183;SDS011;7693;49.266;7.104;2024-01-06T10:11:00;7.17;;;6.47;;
15183;SDS011;7693;49.266;7.104;2024-01-06T10:13:26;5.40;;;5.03;;
15183;SDS011;7693;49.266;7.104;2024-01-06T10:15:53;8.53;;;7.33;;
15183;SDS011;7693;49.266;7.104;2024-01-06T10:18:19;6.00;;;5.50;;
15183;SDS011;7693;49.266;7.104;2024-01-06T10:20:46;5.33;;;4.93;;
15183;SDS011;7693;49.266;7.104;2024-01-06T10:23:12;5.20;;;4.80;;
15183;SDS011;7693;49.266;7.104;2024-01-06T10:25:38;5.00;;;4.60;;
15183;SDS011;7693;49.266;7.104;2024-01-06T10:28:04;5.50;;;5.10;;
15183;SDS011;7693;49.266;7.104;2024-01-06T10:30:30;6.13;;;5.60;;
15183;SDS011;7693;49.266;7.104;2024-01-06T10:32:55;4.60;;;4.30;;
15183;SDS011;7693;49.266;7.104;2024-01-06T10:35:21;4.77;;;4.37;;
15183;SDS011;7693;49.266;7.104;2024-01-06T10:37:49;9.60;;;5.37;;
15183;SDS011;7693;49.266;7.104;2024-01-06T10:40:15;4.77;;;4.47;;
15183;SDS011;7693;49.266;7.104;2024-01-06T10:42:42;5.17;;;4.77;;
15183;SDS011;7693;49.266;7.104;2024-01-06T10:45:08;5.47;;;4.90;;
15183;SDS011;7693;49.266;7.104;2024-01-06T10:47:36;5.47;;;5.07;;
15183;SDS011;7693;49.266;7.104;2024-01-06T10:50:04;5.97;;;5.37;;
15183;SDS011;7693;49.266;7.104;2024-01-06T10:52:30;7.40;;;4.63;;
15183;SDS011;7693;49.266;7.104;2024-01-06T10:54:56;5.20;;;4.80;;
15183;SDS011;7693;49.266;7.104;2024-01-06T10:57:23;5.30;;;4.90;;
15183;SDS011;7693;49.266;7.104;2024-01-06T13:35:31;5.07;;;4.70;;
15183;SDS011;7693;49.266;7.104;2024-01-06T13:37:57;4.93;;;4.00;;
15183;SDS011;7693;49.266;7.104;2024-01-06T13:40:23;4.00;;;3.80;;
15183;SDS011;7693;49.266;7.104;2024-01-06T13:42:49;4.30;;;4.00;;
15183;SDS011;7693;49.266;7.104;2024-01-06T13:45:19;6.10;;;5.60;;
15183;SDS011;7693;49.266;7.104;2024-01-06T13:47:48;4.30;;;4.10;;
15183;SDS011;7693;49.266;7.104;2024-01-06T13:50:14;5.37;;;4.73;;
15183;SDS011;7693;49.266;7.104;2024-01-06T13:52:42;4.10;;;3.90;;
15183;SDS011;7693;49.266;7.104;2024-01-06T13:55:08;4.50;;;4.10;;
15183;SDS011;7693;49.266;7.104;2024-01-06T13:57:35;5.67;;;4.03;;
15183;SDS011;7693;49.266;7.104;2024-01-06T14:00:02;3.80;;;3.60;;
15183;SDS011;7693;49.266;7.104;2024-01-06T14:02:29;4.07;;;3.77;;
15183;SDS011;7693;49.266;7.104;2024-01-06T14:04:55;4.77;;;4.47;;
15183;SDS011;7693;49.266;7.104;2024-01-06T14:07:21;3.57;;;3.40;;
15183;SDS011;7693;49.266;7.104;2024-01-06T14:09:47;3.77;;;3.57;;
15183;SDS011;7693;49.266;7.104;2024-01-06T14:12:13;4.50;;;4.10;;
15183;SDS011;7693;49.266;7.104;2024-01-06T14:14:39;4.03;;;3.80;;
15183;SDS011;7693;49.266;7.104;2024-01-06T14:17:08;4.53;;;4.13;;
15183;SDS011;7693;49.266;7.104;2024-01-06T14:19:34;4.70;;;4.30;;
15183;SDS011;7693;49.266;7.104;2024-01-06T14:22:00;4.07;;;3.87;;
15183;SDS011;7693;49.266;7.104;2024-01-06T14:24:25;4.10;;;3.80;;
15183;SDS011;7693;49.266;7.104;2024-01-06T14:26:52;7.63;;;5.27;;
15183;SDS011;7693;49.266;7.104;2024-01-06T14:29:18;3.90;;;3.70;;
15183;SDS011;7693;49.266;7.104;2024-01-06T14:31:44;3.97;;;3.77;;
15183;SDS011;7693;49.266;7.104;2024-01-06T14:34:10;2.87;;;2.77;;
15183;SDS011;7693;49.266;7.104;2024-01-06T14:36:36;2.60;;;2.60;;
15183;SDS011;7693;49.266;7.104;2024-01-06T14:39:02;3.37;;;3.10;;
15183;SDS011;7693;49.266;7.104;2024-01-06T14:41:31;2.90;;;2.80;;
15183;SDS011;7693;49.266;7.104;2024-01-06T14:43:58;3.20;;;3.10;;
15183;SDS011;7693;49.266;7.104;2024-01-06T14:46:23;4.13;;;3.03;;
15183;SDS011;7693;49.266;7.104;2024-01-06T14:48:49;3.40;;;3.10;;
15183;SDS011;7693;49.266;7.104;2024-01-06T14:51:16;2.70;;;2.60;;
15183;SDS011;7693;49.266;7.104;2024-01-06T14:53:42;3.00;;;2.80;;
15183;SDS011;7693;49.266;7.104;2024-01-06T14:56:08;2.67;;;2.57;;
15183;SDS011;7693;49.266;7.104;2024-01-06T14:58:33;2.87;;;2.67;;
15183;SDS011;7693;49.266;7.104;2024-01-06T15:00:59;2.70;;;2.60;;
15183;SDS011;7693;49.266;7.104;2024-01-06T15:03:25;2.57;;;2.47;;
15183;SDS011;7693;49.266;7.104;2024-01-06T15:05:50;2.47;;;2.37;;
15183;SDS011;7693;49.266;7.104;2024-01-06T15:08:16;2.60;;;2.50;;
15183;SDS011;7693;49.266;7.104;2024-01-06T15:10:42;2.80;;;2.70;;
15183;SDS011;7693;49.266;7.104;2024-01-06T15:13:07;3.07;;;2.87;;
15183;SDS011;7693;49.266;7.104;2024-01-06T15:15:33;2.70;;;2.50;;
15183;SDS011;7693;49.266;7.104;2024-01-06T15:17:58;2.80;;;2.70;;
15183;SDS011;7693;49.266;7.104;2024-01-06T15:20:25;6.53;;;5.93;;
15183;SDS011;7693;49.266;7.104;2024-01-06T15:22:50;2.83;;;2.73;;
15183;SDS011;7693;49.266;7.104;2024-01-06T15:25:16;3.80;;;3.60;;
15183;SDS011;7693;49.266;7.104;2024-01-06T15:27:43;3.50;;;3.30;;
15183;SDS011;7693;49.266;7.104;2024-01-06T15:30:08;4.23;;;3.93;;
15183;SDS011;7693;49.266;7.104;2024-01-06T15:32:35;6.03;;;4.13;;
15183;SDS011;7693;49.266;7.104;2024-01-06T15:35:01;3.60;;;3.37;;
15183;SDS011;7693;49.266;7.104;2024-01-06T15:37:27;4.13;;;3.83;;
15183;SDS011;7693;49.266;7.104;2024-01-06T15:39:54;5.10;;;4.80;;
15183;SDS011;7693;49.266;7.104;2024-01-06T15:42:19;6.60;;;5.97;;
15183;SDS011;7693;49.266;7.104;2024-01-06T15:44:45;7.07;;;6.57;;
15183;SDS011;7693;49.266;7.104;2024-01-06T15:47:10;8.30;;;5.33;;
15183;SDS011;7693;49.266;7.104;2024-01-06T15:49:36;4.40;;;4.20;;
15183;SDS011;7693;49.266;7.104;2024-01-06T15:52:02;3.33;;;3.23;;
15183;SDS011;7693;49.266;7.104;2024-01-06T15:54:30;3.90;;;3.70;;
15183;SDS011;7693;49.266;7.104;2024-01-06T15:56:56;4.13;;;3.83;;
15183;SDS011;7693;49.266;7.104;2024-01-06T15:59:22;5.90;;;5.47;;
15183;SDS011;7693;49.266;7.104;2024-01-06T16:01:47;3.83;;;3.53;;
15183;SDS011;7693;49.266;7.104;2024-01-06T16:04:13;4.40;;;4.20;;
15183;SDS011;7693;49.266;7.104;2024-01-06T16:06:39;5.10;;;4.70;;
15183;SDS011;7693;49.266;7.104;2024-01-06T16:09:05;3.63;;;3.33;;
15183;SDS011;7693;49.266;7.104;2024-01-06T16:11:31;4.27;;;4.07;;
15183;SDS011;7693;49.266;7.104;2024-01-06T16:13:57;4.77;;;4.33;;
15183;SDS011;7693;49.266;7.104;2024-01-06T16:16:22;4.17;;;3.97;;
15183;SDS011;7693;49.266;7.104;2024-01-06T16:18:52;4.50;;;4.30;;
15183;SDS011;7693;49.266;7.104;2024-01-06T16:21:24;4.27;;;4.07;;
15183;SDS011;7693;49.266;7.104;2024-01-06T16:23:50;4.43;;;4.13;;
15183;SDS011;7693;49.266;7.104;2024-01-06T16:26:16;4.90;;;4.60;;
15183;SDS011;7693;49.266;7.104;2024-01-06T16:28:42;5.47;;;5.03;;
15183;SDS011;7693;49.266;7.104;2024-01-06T16:31:08;5.33;;;4.97;;
15183;SDS011;7693;49.266;7.104;2024-01-06T16:33:34;5.07;;;4.77;;
15183;SDS011;7693;49.266;7.104;2024-01-06T16:36:00;4.70;;;4.50;;
15183;SDS011;7693;49.266;7.104;2024-01-06T16:38:26;5.73;;;5.23;;
15183;SDS011;7693;49.266;7.104;2024-01-06T16:40:53;5.47;;;5.17;;
15183;SDS011;7693;49.266;7.104;2024-01-06T16:43:20;5.43;;;5.07;;
15183;SDS011;7693;49.266;7.104;2024-01-06T16:45:46;5.87;;;5.47;;
15183;SDS011;7693;49.266;7.104;2024-01-06T16:48:12;6.63;;;6.13;;
15183;SDS011;7693;49.266;7.104;2024-01-06T16:50:38;6.90;;;6.40;;
15183;SDS011;7693;49.266;7.104;2024-01-06T16:53:03;7.17;;;6.43;;
15183;SDS011;7693;49.266;7.104;2024-01-06T16:55:29;9.70;;;8.90;;
15183;SDS011;7693;49.266;7.104;2024-01-06T16:57:55;7.43;;;6.93;;
15183;SDS011;7693;49.266;7.104;2024-01-06T17:00:24;8.73;;;8.03;;
15183;SDS011;7693;49.266;7.104;2024-01-06T17:02:53;8.23;;;7.53;;
15183;SDS011;7693;49.266;7.104;2024-01-06T17:05:20;11.07;;;9.90;;
15183;SDS011;7693;49.266;7.104;2024-01-06T17:07:45;9.77;;;8.90;;
15183;SDS011;7693;49.266;7.104;2024-01-06T17:10:12;9.77;;;8.97;;
15183;SDS011;7693;49.266;7.104;2024-01-06T17:12:41;22.03;;;19.83;;
15183;SDS011;7693;49.266;7.104;2024-01-06T17:15:08;10.00;;;9.10;;
15183;SDS011;7693;49.266;7.104;2024-01-06T17:17:34;8.80;;;8.10;;
15183;SDS011;7693;49.266;7.104;2024-01-06T17:20:02;9.57;;;8.77;;
15183;SDS011;7693;49.266;7.104;2024-01-06T17:22:29;13.00;;;11.37;;
15183;SDS011;7693;49.266;7.104;2024-01-06T17:24:54;10.27;;;9.27;;
15183;SDS011;7693;49.266;7.104;2024-01-06T17:27:20;10.43;;;9.50;;
15183;SDS011;7693;49.266;7.104;2024-01-06T17:29:45;15.27;;;13.73;;
15183;SDS011;7693;49.266;7.104;2024-01-06T17:32:11;15.37;;;13.73;;
15183;SDS011;7693;49.266;7.104;2024-01-06T17:34:37;10.67;;;9.77;;
15183;SDS011;7693;49.266;7.104;2024-01-06T17:37:02;11.20;;;10.20;;
15183;SDS011;7693;49.266;7.104;2024-01-06T17:39:28;9.47;;;8.67;;
15183;SDS011;7693;49.266;7.104;2024-01-06T17:41:53;23.53;;;21.03;;
15183;SDS011;7693;49.266;7.104;2024-01-06T17:44:19;9.00;;;8.30;;
15183;SDS011;7693;49.266;7.104;2024-01-06T17:46:45;10.30;;;9.40;;
15183;SDS011;7693;49.266;7.104;2024-01-06T17:49:10;15.73;;;14.10;;
15183;SDS011;7693;49.266;7.104;2024-01-06T17:51:36;12.87;;;11.63;;
15183;SDS011;7693;49.266;7.104;2024-01-06T17:54:02;10.50;;;9.60;;
15183;SDS011;7693;49.266;7.104;2024-01-06T17:56:28;11.67;;;10.67;;
15183;SDS011;7693;49.266;7.104;2024-01-06T17:58:53;9.87;;;8.97;;
15183;SDS011;7693;49.266;7.104;2024-01-06T18:01:25;10.67;;;9.77;;
15183;SDS011;7693;49.266;7.104;2024-01-06T18:03:51;9.97;;;9.10;;
15183;SDS011;7693;49.266;7.104;2024-01-06T18:06:18;9.70;;;8.90;;
15183;SDS011;7693;49.266;7.104;2024-01-06T18:08:44;11.23;;;10.27;;
15183;SDS011;7693;49.266;7.104;2024-01-06T18:11:10;8.87;;;8.17;;
15183;SDS011;7693;49.266;7.104;2024-01-06T18:13:35;9.37;;;8.60;;
15183;SDS011;7693;49.266;7.104;2024-01-06T18:16:01;10.80;;;9.80;;
15183;SDS011;7693;49.266;7.104;2024-01-06T18:18:27;11.53;;;10.43;;
15183;SDS011;7693;49.266;7.104;2024-01-06T18:20:52;8.97;;;8.30;;
15183;SDS011;7693;49.266;7.104;2024-01-06T18:23:18;10.93;;;9.93;;
15183;SDS011;7693;49.266;7.104;2024-01-06T18:25:43;10.00;;;9.10;;
15183;SDS011;7693;49.266;7.104;2024-01-06T18:28:09;10.33;;;9.37;;
15183;SDS011;7693;49.266;7.104;2024-01-06T18:30:35;10.40;;;9.33;;
15183;SDS011;7693;49.266;7.104;2024-01-06T18:33:01;12.70;;;11.50;;
15183;SDS011;7693;49.266;7.104;2024-01-06T18:35:27;9.33;;;8.53;;
15183;SDS011;7693;49.266;7.104;2024-01-06T18:37:54;7.53;;;6.97;;
15183;SDS011;7693;49.266;7.104;2024-01-06T18:40:20;8.50;;;7.70;;
15183;SDS011;7693;49.266;7.104;2024-01-06T18:42:45;8.33;;;7.63;;
15183;SDS011;7693;49.266;7.104;2024-01-06T18:45:11;10.40;;;9.30;;
15183;SDS011;7693;49.266;7.104;2024-01-06T18:47:37;12.07;;;10.60;;
15183;SDS011;7693;49.266;7.104;2024-01-06T18:50:06;11.87;;;10.57;;
15183;SDS011;7693;49.266;7.104;2024-01-06T18:52:33;9.50;;;8.70;;
15183;SDS011;7693;49.266;7.104;2024-01-06T18:54:58;8.37;;;7.77;;
15183;SDS011;7693;49.266;7.104;2024-01-06T18:57:24;6.80;;;6.30;;
15183;SDS011;7693;49.266;7.104;2024-01-06T18:59:50;7.93;;;7.23;;
15183;SDS011;7693;49.266;7.104;2024-01-06T19:02:15;7.07;;;6.47;;
15183;SDS011;7693;49.266;7.104;2024-01-06T19:04:41;8.23;;;7.43;;
15183;SDS011;7693;49.266;7.104;2024-01-06T19:07:09;5.97;;;5.57;;
15183;SDS011;7693;49.266;7.104;2024-01-06T19:09:35;5.20;;;4.90;;
15183;SDS011;7693;49.266;7.104;2024-01-06T19:12:01;5.10;;;4.80;;
15183;SDS011;7693;49.266;7.104;2024-01-06T19:14:28;5.80;;;5.37;;
15183;SDS011;7693;49.266;7.104;2024-01-06T19:16:53;5.67;;;5.27;;
15183;SDS011;7693;49.266;7.104;2024-01-06T19:19:19;6.30;;;5.90;;
15183;SDS011;7693;49.266;7.104;2024-01-06T19:21:44;7.23;;;6.63;;
15183;SDS011;7693;49.266;7.104;2024-01-06T19:24:10;7.10;;;6.40;;
15183;SDS011;7693;49.266;7.104;2024-01-06T19:26:39;27.80;;;23.33;;
15183;SDS011;7693;49.266;7.104;2024-01-06T19:29:06;8.47;;;7.63;;
15183;SDS011;7693;49.266;7.104;2024-01-06T19:31:31;12.20;;;10.90;;
15183;SDS011;7693;49.266;7.104;2024-01-06T19:33:57;5.27;;;4.80;;
15183;SDS011;7693;49.266;7.104;2024-01-06T19:36:23;6.20;;;5.80;;
15183;SDS011;7693;49.266;7.104;2024-01-06T19:38:49;6.73;;;6.23;;
15183;SDS011;7693;49.266;7.104;2024-01-06T19:41:15;6.70;;;6.20;;
15183;SDS011;7693;49.266;7.104;2024-01-06T19:43:41;6.77;;;6.27;;
15183;SDS011;7693;49.266;7.104;2024-01-06T19:46:07;6.40;;;5.90;;
15183;SDS011;7693;49.266;7.104;2024-01-06T19:48:35;6.10;;;5.70;;
15183;SDS011;7693;49.266;7.104;2024-01-06T19:51:01;6.67;;;6.17;;
15183;SDS011;7693;49.266;7.104;2024-01-06T19:53:27;7.87;;;7.17;;
15183;SDS011;7693;49.266;7.104;2024-01-06T19:55:54;6.33;;;5.83;;
15183;SDS011;7693;49.266;7.104;2024-01-06T19:58:20;6.47;;;5.93;;
15183;SDS011;7693;49.266;7.104;2024-01-06T20:00:46;5.03;;;4.77;;
15183;SDS011;7693;49.266;7.104;2024-01-06T20:03:12;5.23;;;4.93;;
15183;SDS011;7693;49.266;7.104;2024-01-06T20:05:41;5.40;;;4.90;;
15183;SDS011;7693;49.266;7.104;2024-01-06T20:08:07;4.93;;;4.73;;
15183;SDS011;7693;49.266;7.104;2024-01-06T20:10:32;5.47;;;5.17;;
15183;SDS011;7693;49.266;7.104;2024-01-06T20:12:59;6.77;;;6.27;;
15183;SDS011;7693;49.266;7.104;2024-01-06T20:15:25;7.97;;;7.20;;
15183;SDS011;7693;49.266;7.104;2024-01-06T20:17:51;6.63;;;6.13;;
15183;SDS011;7693;49.266;7.104;2024-01-06T20:20:17;7.23;;;6.73;;
15183;SDS011;7693;49.266;7.104;2024-01-06T20:22:43;6.43;;;6.03;;
15183;SDS011;7693;49.266;7.104;2024-01-06T20:25:09;6.23;;;5.83;;
15183;SDS011;7693;49.266;7.104;2024-01-06T20:27:36;6.80;;;6.20;;
15183;SDS011;7693;49.266;7.104;2024-01-06T20:30:02;7.97;;;7.27;;
15183;SDS011;7693;49.266;7.104;2024-01-06T20:32:28;6.80;;;6.30;;
15183;SDS011;7693;49.266;7.104;2024-01-06T20:34:54;6.97;;;6.30;;
15183;SDS011;7693;49.266;7.104;2024-01-06T20:37:20;8.07;;;7.33;;
15183;SDS011;7693;49.266;7.104;2024-01-06T20:39:46;7.00;;;6.43;;
15183;SDS011;7693;49.266;7.104;2024-01-06T20:42:12;6.87;;;6.33;;
15183;SDS011;7693;49.266;7.104;2024-01-06T20:44:38;6.27;;;5.77;;
15183;SDS011;7693;49.266;7.104;2024-01-06T20:47:03;6.93;;;6.33;;
15183;SDS011;7693;49.266;7.104;2024-01-06T20:49:29;7.40;;;6.80;;
15183;SDS011;7693;49.266;7.104;2024-01-06T20:51:55;6.17;;;5.73;;
15183;SDS011;7693;49.266;7.104;2024-01-06T20:54:22;6.60;;;6.10;;
15183;SDS011;7693;49.266;7.104;2024-01-06T20:56:48;6.33;;;5.83;;
15183;SDS011;7693;49.266;7.104;2024-01-06T20:59:14;5.50;;;5.10;;
15183;SDS011;7693;49.266;7.104;2024-01-06T21:01:41;5.93;;;5.53;;
15183;SDS011;7693;49.266;7.104;2024-01-06T21:04:07;5.90;;;5.50;;
15183;SDS011;7693;49.266;7.104;2024-01-06T21:06:33;6.67;;;6.17;;
15183;SDS011;7693;49.266;7.104;2024-01-06T21:08:59;6.27;;;5.87;;
15183;SDS011;7693;49.266;7.104;2024-01-06T21:11:25;7.17;;;6.53;;
15183;SDS011;7693;49.266;7.104;2024-01-06T21:13:51;7.67;;;7.07;;
15183;SDS011;7693;49.266;7.104;2024-01-06T21:16:16;6.53;;;6.13;;
15183;SDS011;7693;49.266;7.104;2024-01-06T21:18:42;6.00;;;5.70;;
15183;SDS011;7693;49.266;7.104;2024-01-06T21:21:08;6.93;;;6.43;;
15183;SDS011;7693;49.266;7.104;2024-01-06T21:23:37;6.20;;;5.70;;
15183;SDS011;7693;49.266;7.104;2024-01-06T21:26:03;6.20;;;5.80;;
15183;SDS011;7693;49.266;7.104;2024-01-06T21:28:29;5.80;;;5.40;;
15183;SDS011;7693;49.266;7.104;2024-01-06T21:30:55;5.63;;;5.23;;
15183;SDS011;7693;49.266;7.104;2024-01-06T21:33:20;5.40;;;5.10;;
15183;SDS011;7693;49.266;7.104;2024-01-06T21:35:46;5.10;;;4.70;;
15183;SDS011;7693;49.266;7.104;2024-01-06T21:38:13;6.23;;;5.83;;
15183;SDS011;7693;49.266;7.104;2024-01-06T21:40:39;6.43;;;6.00;;
15183;SDS011;7693;49.266;7.104;2024-01-06T21:43:05;5.20;;;4.90;;
15183;SDS011;7693;49.266;7.104;2024-01-06T21:45:31;4.90;;;4.60;;
15183;SDS011;7693;49.266;7.104;2024-01-06T21:47:57;5.20;;;4.90;;
15183;SDS011;7693;49.266;7.104;2024-01-06T21:50:23;5.07;;;4.77;;
15183;SDS011;7693;49.266;7.104;2024-01-06T21:52:49;4.97;;;4.67;;
15183;SDS011;7693;49.266;7.104;2024-01-06T21:55:15;7.20;;;4.23;;
15183;SDS011;7693;49.266;7.104;2024-01-06T21:57:42;4.93;;;4.63;;
15183;SDS011;7693;49.266;7.104;2024-01-06T22:00:08;4.80;;;4.60;;
15183;SDS011;7693;49.266;7.104;2024-01-06T22:02:39;4.47;;;4.17;;
15183;SDS011;7693;49.266;7.104;2024-01-06T22:05:04;4.90;;;4.60;;
15183;SDS011;7693;49.266;7.104;2024-01-06T22:07:30;4.77;;;4.47;;
15183;SDS011;7693;49.266;7.104;2024-01-06T22:09:57;4.73;;;4.43;;
15183;SDS011;7693;49.266;7.104;2024-01-06T22:12:23;4.27;;;4.07;;
15183;SDS011;7693;49.266;7.104;2024-01-06T22:14:48;4.20;;;4.00;;
15183;SDS011;7693;49.266;7.104;2024-01-06T22:17:14;3.73;;;3.57;;
15183;SDS011;7693;49.266;7.104;2024-01-06T22:19:39;5.10;;;4.70;;
15183;SDS011;7693;49.266;7.104;2024-01-06T22:22:06;3.90;;;3.70;;
15183;SDS011;7693;49.266;7.104;2024-01-06T22:24:32;4.03;;;3.93;;
15183;SDS011;7693;49.266;7.104;2024-01-06T22:26:58;4.30;;;4.10;;
15183;SDS011;7693;49.266;7.104;2024-01-06T22:29:24;4.23;;;3.93;;
15183;SDS011;7693;49.266;7.104;2024-01-06T22:31:49;4.00;;;3.90;;
15183;SDS011;7693;49.266;7.104;2024-01-06T22:34:15;3.70;;;3.50;;
15183;SDS011;7693;49.266;7.104;2024-01-06T22:36:42;4.03;;;3.90;;
15183;SDS011;7693;49.266;7.104;2024-01-06T22:39:08;4.23;;;3.83;;
15183;SDS011;7693;49.266;7.104;2024-01-06T22:41:34;3.90;;;3.70;;
15183;SDS011;7693;49.266;7.104;2024-01-06T22:43:59;4.30;;;4.10;;
15183;SDS011;7693;49.266;7.104;2024-01-06T22:46:25;4.00;;;3.83;;
15183;SDS011;7693;49.266;7.104;2024-01-06T22:48:51;4.20;;;4.00;;
